createdAt,value
2018-01-23T00:00:47.505Z,1002.64
2018-01-23T00:01:47.500Z,1002.65
2018-01-23T00:02:47.463Z,1002.73
2018-01-23T00:03:47.452Z,1002.67
2018-01-23T00:04:47.440Z,1002.67
2018-01-23T00:05:47.397Z,1002.69
2018-01-23T00:06:47.445Z,1002.63
2018-01-23T00:07:47.402Z,1002.70
2018-01-23T00:08:47.375Z,1002.70
2018-01-23T00:09:47.366Z,1002.73
2018-01-23T00:10:47.339Z,1002.76
2018-01-23T00:11:47.316Z,1002.72
2018-01-23T00:12:47.348Z,1002.75
2018-01-23T00:13:47.288Z,1002.79
2018-01-23T00:14:47.280Z,1002.82
2018-01-23T00:15:47.266Z,1002.82
2018-01-23T00:16:47.356Z,1002.80
2018-01-23T00:17:47.233Z,1002.87
2018-01-23T00:18:47.191Z,1002.80
2018-01-23T00:19:47.173Z,1002.82
2018-01-23T00:20:47.176Z,1002.85
2018-01-23T00:21:47.143Z,1002.84
2018-01-23T00:22:47.176Z,1002.89
2018-01-23T00:23:47.118Z,1002.97
2018-01-23T00:24:47.103Z,1002.95
2018-01-23T00:25:47.087Z,1002.98
2018-01-23T00:26:47.371Z,1003.01
2018-01-23T00:27:47.084Z,1002.99
2018-01-23T00:28:47.054Z,1002.91
2018-01-23T00:29:47.031Z,1003.00
2018-01-23T00:30:47.005Z,1003.08
2018-01-23T00:31:46.993Z,1003.02
2018-01-23T00:32:47.013Z,1003.03
2018-01-23T00:33:46.967Z,1003.09
2018-01-23T00:34:46.939Z,1003.02
2018-01-23T00:35:46.957Z,1003.06
2018-01-23T00:36:46.908Z,1003.08
2018-01-23T00:37:46.897Z,1003.06
2018-01-23T00:38:47.083Z,1003.08
2018-01-23T00:39:46.872Z,1003.08
2018-01-23T00:40:46.858Z,1003.08
2018-01-23T00:41:46.821Z,1003.05
2018-01-23T00:42:46.804Z,1003.14
2018-01-23T00:43:46.861Z,1003.18
2018-01-23T00:44:46.768Z,1003.17
2018-01-23T00:45:46.765Z,1003.12
2018-01-23T00:46:46.763Z,1003.05
2018-01-23T00:47:46.784Z,1003.10
2018-01-23T00:48:46.703Z,1003.10
2018-01-23T00:49:46.736Z,1003.13
2018-01-23T00:50:46.687Z,1003.08
2018-01-23T00:51:46.662Z,1003.07
2018-01-23T00:52:46.638Z,1003.11
2018-01-23T00:53:46.648Z,1003.08
2018-01-23T00:54:46.666Z,1003.05
2018-01-23T00:55:46.661Z,1003.13
2018-01-23T00:56:46.604Z,1003.11
2018-01-23T00:57:46.550Z,1003.15
2018-01-23T00:58:46.536Z,1003.12
2018-01-23T00:59:46.534Z,1003.14
2018-01-23T01:00:46.527Z,1003.21
2018-01-23T01:01:46.521Z,1003.18
2018-01-23T01:02:46.508Z,1003.12
2018-01-23T01:03:46.467Z,1003.19
2018-01-23T01:04:46.463Z,1003.19
2018-01-23T01:05:46.772Z,1003.17
2018-01-23T01:06:46.453Z,1003.23
2018-01-23T01:07:46.398Z,1003.25
2018-01-23T01:08:46.385Z,1003.24
2018-01-23T01:09:46.354Z,1003.23
2018-01-23T01:10:46.363Z,1003.25
2018-01-23T01:11:46.367Z,1003.27
2018-01-23T01:12:46.333Z,1003.24
2018-01-23T01:13:46.302Z,1003.27
2018-01-23T01:14:46.286Z,1003.30
2018-01-23T01:15:46.298Z,1003.33
2018-01-23T01:16:46.258Z,1003.31
2018-01-23T01:17:46.271Z,1003.38
2018-01-23T01:18:46.222Z,1003.32
2018-01-23T01:19:46.241Z,1003.35
2018-01-23T01:20:46.183Z,1003.30
2018-01-23T01:21:46.174Z,1003.34
2018-01-23T01:22:46.336Z,1003.37
2018-01-23T01:23:46.149Z,1003.39
2018-01-23T01:24:46.139Z,1003.42
2018-01-23T01:25:46.113Z,1003.47
2018-01-23T01:26:46.094Z,1003.44
2018-01-23T01:27:46.082Z,1003.50
2018-01-23T01:28:46.369Z,1003.54
2018-01-23T01:29:46.061Z,1003.52
2018-01-23T01:30:46.044Z,1003.54
2018-01-23T01:31:46.029Z,1003.46
2018-01-23T01:32:46.009Z,1003.50
2018-01-23T01:33:45.992Z,1003.52
2018-01-23T01:34:46.031Z,1003.56
2018-01-23T01:35:45.963Z,1003.54
2018-01-23T01:36:45.938Z,1003.60
2018-01-23T01:37:45.928Z,1003.61
2018-01-23T01:38:45.911Z,1003.59
2018-01-23T01:39:45.899Z,1003.62
2018-01-23T01:40:45.890Z,1003.62
2018-01-23T01:41:45.858Z,1003.63
2018-01-23T01:42:45.846Z,1003.64
2018-01-23T01:43:45.830Z,1003.66
2018-01-23T01:44:45.812Z,1003.65
2018-01-23T01:45:45.873Z,1003.68
2018-01-23T01:46:45.799Z,1003.68
2018-01-23T01:47:45.765Z,1003.69
2018-01-23T01:48:45.737Z,1003.66
2018-01-23T01:49:45.735Z,1003.71
2018-01-23T01:50:45.749Z,1003.70
2018-01-23T01:51:45.715Z,1003.68
2018-01-23T01:52:45.754Z,1003.69
2018-01-23T01:53:45.689Z,1003.73
2018-01-23T01:54:46.258Z,1003.70
2018-01-23T01:55:45.640Z,1003.76
2018-01-23T01:56:45.627Z,1003.82
2018-01-23T01:57:46.364Z,1003.81
2018-01-23T01:58:45.633Z,1003.81
2018-01-23T01:59:45.565Z,1003.85
2018-01-23T02:00:45.564Z,1003.83
2018-01-23T02:01:45.610Z,1003.86
2018-01-23T02:02:45.513Z,1003.87
2018-01-23T02:03:45.490Z,1003.89
2018-01-23T02:04:45.496Z,1003.90
2018-01-23T02:05:45.470Z,1003.90
2018-01-23T02:06:46.359Z,1003.94
2018-01-23T02:07:45.478Z,1003.95
2018-01-23T02:08:45.426Z,1004.00
2018-01-23T02:09:46.366Z,1004.00
2018-01-23T02:10:45.390Z,1003.98
2018-01-23T02:11:45.395Z,1004.02
2018-01-23T02:12:45.401Z,1004.04
2018-01-23T02:13:45.363Z,1004.00
2018-01-23T02:14:45.368Z,1004.01
2018-01-23T02:15:45.326Z,1004.02
2018-01-23T02:16:45.331Z,1004.03
2018-01-23T02:17:45.282Z,1004.04
2018-01-23T02:18:45.334Z,1004.01
2018-01-23T02:19:45.257Z,1004.03
2018-01-23T02:20:45.231Z,1004.08
2018-01-23T02:21:45.204Z,1004.10
2018-01-23T02:22:45.205Z,1004.07
2018-01-23T02:23:45.177Z,1004.10
2018-01-23T02:24:45.184Z,1004.10
2018-01-23T02:25:45.171Z,1004.12
2018-01-23T02:26:45.181Z,1004.12
2018-01-23T02:27:45.122Z,1004.11
2018-01-23T02:28:45.125Z,1004.14
2018-01-23T02:29:45.126Z,1004.15
2018-01-23T02:30:45.080Z,1004.16
2018-01-23T02:31:45.059Z,1004.17
2018-01-23T02:32:45.046Z,1004.21
2018-01-23T02:33:45.077Z,1004.21
2018-01-23T02:34:45.029Z,1004.22
2018-01-23T02:35:45.006Z,1004.20
2018-01-23T02:36:44.994Z,1004.20
2018-01-23T02:37:44.996Z,1004.23
2018-01-23T02:38:44.970Z,1004.25
2018-01-23T02:39:44.926Z,1004.25
2018-01-23T02:40:44.907Z,1004.24
2018-01-23T02:41:44.911Z,1004.23
2018-01-23T02:42:44.894Z,1004.27
2018-01-23T02:43:44.866Z,1004.27
2018-01-23T02:44:44.906Z,1004.26
2018-01-23T02:45:44.843Z,1004.27
2018-01-23T02:46:44.875Z,1004.33
2018-01-23T02:47:44.810Z,1004.28
2018-01-23T02:48:44.794Z,1004.31
2018-01-23T02:49:44.760Z,1004.32
2018-01-23T02:50:44.783Z,1004.34
2018-01-23T02:51:44.750Z,1004.30
2018-01-23T02:52:44.780Z,1004.33
2018-01-23T02:53:44.717Z,1004.35
2018-01-23T02:54:44.699Z,1004.33
2018-01-23T02:55:44.686Z,1004.33
2018-01-23T02:56:44.679Z,1004.36
2018-01-23T02:57:44.689Z,1004.38
2018-01-23T02:58:44.644Z,1004.36
2018-01-23T02:59:44.657Z,1004.37
2018-01-23T03:00:44.637Z,1004.42
2018-01-23T03:01:44.582Z,1004.36
2018-01-23T03:02:44.585Z,1004.41
2018-01-23T03:03:44.555Z,1004.43
2018-01-23T03:04:44.547Z,1004.46
2018-01-23T03:05:44.559Z,1004.50
2018-01-23T03:06:44.499Z,1004.49
2018-01-23T03:07:44.482Z,1004.53
2018-01-23T03:08:44.498Z,1004.58
2018-01-23T03:09:44.457Z,1004.52
2018-01-23T03:10:44.752Z,1004.56
2018-01-23T03:11:44.419Z,1004.62
2018-01-23T03:12:44.395Z,1004.58
2018-01-23T03:13:44.393Z,1004.60
2018-01-23T03:14:44.382Z,1004.57
2018-01-23T03:15:44.351Z,1004.63
2018-01-23T03:16:44.352Z,1004.66
2018-01-23T03:17:44.345Z,1004.65
2018-01-23T03:18:45.263Z,1004.69
2018-01-23T03:19:44.355Z,1004.66
2018-01-23T03:20:44.360Z,1004.66
2018-01-23T03:21:44.292Z,1004.63
2018-01-23T03:22:44.251Z,1004.62
2018-01-23T03:23:44.243Z,1004.65
2018-01-23T03:24:44.222Z,1004.65
2018-01-23T03:25:44.210Z,1004.67
2018-01-23T03:26:44.180Z,1004.68
2018-01-23T03:27:44.187Z,1004.72
2018-01-23T03:28:44.168Z,1004.67
2018-01-23T03:29:44.171Z,1004.71
2018-01-23T03:30:44.132Z,1004.74
2018-01-23T03:31:44.137Z,1004.74
2018-01-23T03:32:44.092Z,1004.72
2018-01-23T03:33:44.096Z,1004.76
2018-01-23T03:34:44.066Z,1004.65
2018-01-23T03:35:44.065Z,1004.81
2018-01-23T03:36:44.087Z,1004.79
2018-01-23T03:37:44.028Z,1004.79
2018-01-23T03:38:44.006Z,1004.81
2018-01-23T03:39:43.985Z,1004.82
2018-01-23T03:40:43.980Z,1004.76
2018-01-23T03:41:43.953Z,1004.81
2018-01-23T03:42:44.000Z,1004.84
2018-01-23T03:43:43.908Z,1004.83
2018-01-23T03:44:43.900Z,1004.85
2018-01-23T03:45:43.883Z,1004.86
2018-01-23T03:46:43.860Z,1004.89
2018-01-23T03:47:43.851Z,1004.89
2018-01-23T03:48:43.866Z,1004.94
2018-01-23T03:49:43.841Z,1004.95
2018-01-23T03:50:43.818Z,1004.96
2018-01-23T03:51:43.791Z,1004.96
2018-01-23T03:52:43.773Z,1004.99
2018-01-23T03:53:43.817Z,1004.99
2018-01-23T03:54:43.792Z,1005.01
2018-01-23T03:55:43.727Z,1004.97
2018-01-23T03:56:43.718Z,1004.97
2018-01-23T03:57:43.687Z,1005.02
2018-01-23T03:58:43.686Z,1004.99
2018-01-23T03:59:43.672Z,1005.00
2018-01-23T04:00:43.647Z,1005.01
2018-01-23T04:01:43.638Z,1005.01
2018-01-23T04:02:43.626Z,1005.01
2018-01-23T04:03:43.606Z,1005.02
2018-01-23T04:04:43.591Z,1005.05
2018-01-23T04:05:43.594Z,1005.02
2018-01-23T04:06:43.551Z,1005.04
2018-01-23T04:07:43.542Z,1005.07
2018-01-23T04:08:43.522Z,1005.04
2018-01-23T04:09:43.500Z,1005.08
2018-01-23T04:10:43.565Z,1005.12
2018-01-23T04:11:43.484Z,1005.13
2018-01-23T04:12:43.471Z,1005.13
2018-01-23T04:13:43.456Z,1005.07
2018-01-23T04:14:43.432Z,1005.14
2018-01-23T04:15:43.426Z,1005.12
2018-01-23T04:16:43.486Z,1005.15
2018-01-23T04:17:43.373Z,1005.18
2018-01-23T04:18:43.352Z,1005.11
2018-01-23T04:19:43.507Z,1005.09
2018-01-23T04:20:43.342Z,1005.14
2018-01-23T04:21:43.331Z,1005.09
2018-01-23T04:22:43.373Z,1005.17
2018-01-23T04:23:43.293Z,1005.05
2018-01-23T04:24:43.270Z,1005.09
2018-01-23T04:25:43.275Z,1005.05
2018-01-23T04:26:43.280Z,1005.10
2018-01-23T04:27:43.281Z,1005.14
2018-01-23T04:28:43.208Z,1005.19
2018-01-23T04:29:43.203Z,1005.20
2018-01-23T04:30:43.176Z,1005.18
2018-01-23T04:31:43.212Z,1005.26
2018-01-23T04:32:43.159Z,1005.27
2018-01-23T04:33:43.136Z,1005.28
2018-01-23T04:34:43.118Z,1005.32
2018-01-23T04:35:43.159Z,1005.35
2018-01-23T04:36:43.093Z,1005.33
2018-01-23T04:37:43.061Z,1005.35
2018-01-23T04:38:43.044Z,1005.33
2018-01-23T04:39:43.033Z,1005.35
2018-01-23T04:40:43.046Z,1005.39
2018-01-23T04:41:43.048Z,1005.40
2018-01-23T04:42:43.310Z,1005.40
2018-01-23T04:43:43.002Z,1005.41
2018-01-23T04:44:42.963Z,1005.45
2018-01-23T04:45:42.940Z,1005.48
2018-01-23T04:46:42.922Z,1005.47
2018-01-23T04:47:42.916Z,1005.50
2018-01-23T04:48:42.924Z,1005.47
2018-01-23T04:49:42.866Z,1005.42
2018-01-23T04:50:42.860Z,1005.42
2018-01-23T04:51:42.848Z,1005.46
2018-01-23T04:52:42.857Z,1005.51
2018-01-23T04:53:42.819Z,1005.47
2018-01-23T04:54:42.786Z,1005.47
2018-01-23T04:55:42.769Z,1005.49
2018-01-23T04:56:42.776Z,1005.48
2018-01-23T04:57:42.785Z,1005.50
2018-01-23T04:58:42.735Z,1005.51
2018-01-23T04:59:42.786Z,1005.56
2018-01-23T05:00:42.710Z,1005.56
2018-01-23T05:01:42.696Z,1005.59
2018-01-23T05:02:42.671Z,1005.57
2018-01-23T05:03:42.658Z,1005.55
2018-01-23T05:04:42.646Z,1005.58
2018-01-23T05:05:42.670Z,1005.59
2018-01-23T05:06:42.606Z,1005.61
2018-01-23T05:07:42.591Z,1005.57
2018-01-23T05:08:42.569Z,1005.63
2018-01-23T05:09:42.612Z,1005.64
2018-01-23T05:10:42.544Z,1005.65
2018-01-23T05:11:42.525Z,1005.65
2018-01-23T05:12:42.518Z,1005.64
2018-01-23T05:13:42.506Z,1005.67
2018-01-23T05:14:42.496Z,1005.71
2018-01-23T05:15:42.469Z,1005.77
2018-01-23T05:16:42.450Z,1005.71
2018-01-23T05:17:42.415Z,1005.76
2018-01-23T05:18:42.415Z,1005.72
2018-01-23T05:19:42.417Z,1005.75
2018-01-23T05:20:42.378Z,1005.71
2018-01-23T05:21:42.377Z,1005.68
2018-01-23T05:22:42.370Z,1005.64
2018-01-23T05:23:42.360Z,1005.67
2018-01-23T05:24:42.329Z,1005.71
2018-01-23T05:25:42.327Z,1005.71
2018-01-23T05:26:42.287Z,1005.68
2018-01-23T05:27:42.272Z,1005.74
2018-01-23T05:28:42.263Z,1005.79
2018-01-23T05:29:42.268Z,1005.82
2018-01-23T05:30:42.221Z,1005.80
2018-01-23T05:31:42.190Z,1005.82
2018-01-23T05:32:42.207Z,1005.85
2018-01-23T05:33:42.170Z,1005.83
2018-01-23T05:34:42.206Z,1005.88
2018-01-23T05:35:42.134Z,1005.90
2018-01-23T05:36:42.129Z,1005.93
2018-01-23T05:37:42.121Z,1005.87
2018-01-23T05:38:42.075Z,1005.93
2018-01-23T05:39:42.133Z,1005.89
2018-01-23T05:40:42.871Z,1005.90
2018-01-23T05:41:42.050Z,1005.91
2018-01-23T05:42:42.116Z,1005.93
2018-01-23T05:43:42.016Z,1005.91
2018-01-23T05:44:42.007Z,1005.92
2018-01-23T05:45:41.984Z,1005.95
2018-01-23T05:46:41.963Z,1006.00
2018-01-23T05:47:41.949Z,1005.96
2018-01-23T05:48:41.936Z,1005.96
2018-01-23T05:49:41.920Z,1006.02
2018-01-23T05:50:41.913Z,1006.03
2018-01-23T05:51:41.923Z,1006.08
2018-01-23T05:52:41.899Z,1006.05
2018-01-23T05:53:41.920Z,1006.04
2018-01-23T05:54:41.840Z,1006.03
2018-01-23T05:55:41.812Z,1006.07
2018-01-23T05:56:41.797Z,1006.03
2018-01-23T05:57:41.793Z,1006.04
2018-01-23T05:58:42.387Z,1006.08
2018-01-23T05:59:41.797Z,1006.09
2018-01-23T06:00:41.749Z,1006.11
2018-01-23T06:01:41.727Z,1006.16
2018-01-23T06:02:42.390Z,1006.16
2018-01-23T06:03:41.686Z,1006.14
2018-01-23T06:04:41.745Z,1006.23
2018-01-23T06:05:41.670Z,1006.21
2018-01-23T06:06:41.665Z,1006.19
2018-01-23T06:07:41.668Z,1006.21
2018-01-23T06:08:41.634Z,1006.25
2018-01-23T06:09:41.610Z,1006.26
2018-01-23T06:10:41.661Z,1006.26
2018-01-23T06:11:41.574Z,1006.23
2018-01-23T06:12:41.553Z,1006.27
2018-01-23T06:13:41.533Z,1006.30
2018-01-23T06:14:41.522Z,1006.33
2018-01-23T06:15:41.520Z,1006.29
2018-01-23T06:16:41.490Z,1006.35
2018-01-23T06:17:41.501Z,1006.27
2018-01-23T06:18:41.456Z,1006.33
2018-01-23T06:19:41.455Z,1006.37
2018-01-23T06:20:41.468Z,1006.34
2018-01-23T06:21:41.422Z,1006.38
2018-01-23T06:22:41.398Z,1006.36
2018-01-23T06:23:41.376Z,1006.40
2018-01-23T06:24:41.384Z,1006.42
2018-01-23T06:25:41.380Z,1006.45
2018-01-23T06:26:41.358Z,1006.41
2018-01-23T06:27:41.333Z,1006.46
2018-01-23T06:28:41.317Z,1006.45
2018-01-23T06:29:41.302Z,1006.47
2018-01-23T06:30:41.285Z,1006.47
2018-01-23T06:31:41.283Z,1006.54
2018-01-23T06:32:41.236Z,1006.50
2018-01-23T06:33:41.239Z,1006.55
2018-01-23T06:34:41.246Z,1006.52
2018-01-23T06:35:41.185Z,1006.53
2018-01-23T06:36:41.224Z,1006.51
2018-01-23T06:37:41.171Z,1006.48
2018-01-23T06:38:41.138Z,1006.54
2018-01-23T06:39:41.138Z,1006.51
2018-01-23T06:40:41.116Z,1006.50
2018-01-23T06:41:41.169Z,1006.50
2018-01-23T06:42:41.069Z,1006.51
2018-01-23T06:43:41.081Z,1006.53
2018-01-23T06:44:41.064Z,1006.54
2018-01-23T06:45:41.035Z,1006.51
2018-01-23T06:46:41.029Z,1006.53
2018-01-23T06:47:41.333Z,1006.52
2018-01-23T06:48:41.011Z,1006.52
2018-01-23T06:49:40.982Z,1006.58
2018-01-23T06:50:40.955Z,1006.58
2018-01-23T06:51:40.956Z,1006.61
2018-01-23T06:52:40.933Z,1006.61
2018-01-23T06:53:40.935Z,1006.65
2018-01-23T06:54:40.890Z,1006.65
2018-01-23T06:55:40.901Z,1006.66
2018-01-23T06:56:40.850Z,1006.68
2018-01-23T06:57:40.932Z,1006.69
2018-01-23T06:58:40.816Z,1006.66
2018-01-23T06:59:40.826Z,1006.73
2018-01-23T07:00:40.798Z,1006.70
2018-01-23T07:01:40.809Z,1006.70
2018-01-23T07:02:40.774Z,1006.71
2018-01-23T07:03:40.777Z,1006.69
2018-01-23T07:04:40.754Z,1006.72
2018-01-23T07:05:40.732Z,1006.72
2018-01-23T07:06:40.701Z,1006.72
2018-01-23T07:07:40.700Z,1006.70
2018-01-23T07:08:40.742Z,1006.73
2018-01-23T07:09:40.706Z,1006.70
2018-01-23T07:10:40.651Z,1006.74
2018-01-23T07:11:40.625Z,1006.74
2018-01-23T07:12:40.602Z,1006.76
2018-01-23T07:13:40.584Z,1006.81
2018-01-23T07:14:40.645Z,1006.81
2018-01-23T07:15:40.542Z,1006.86
2018-01-23T07:16:40.555Z,1006.84
2018-01-23T07:17:40.533Z,1006.91
2018-01-23T07:18:40.524Z,1006.86
2018-01-23T07:19:40.489Z,1006.80
2018-01-23T07:20:40.488Z,1006.82
2018-01-23T07:21:40.457Z,1006.85
2018-01-23T07:22:40.450Z,1006.91
2018-01-23T07:23:40.416Z,1006.89
2018-01-23T07:24:40.407Z,1006.85
2018-01-23T07:25:40.472Z,1006.93
2018-01-23T07:26:40.397Z,1006.91
2018-01-23T07:27:40.385Z,1006.91
2018-01-23T07:28:40.360Z,1006.87
2018-01-23T07:29:40.331Z,1006.90
2018-01-23T07:30:41.304Z,1006.89
2018-01-23T07:31:40.379Z,1006.92
2018-01-23T07:32:40.293Z,1006.94
2018-01-23T07:33:40.259Z,1006.88
2018-01-23T07:34:40.264Z,1006.90
2018-01-23T07:35:40.244Z,1006.90
2018-01-23T07:36:40.229Z,1006.92
2018-01-23T07:37:40.905Z,1006.92
2018-01-23T07:38:40.185Z,1006.97
2018-01-23T07:39:40.188Z,1006.95
2018-01-23T07:40:40.168Z,1006.96
2018-01-23T07:41:40.134Z,1006.97
2018-01-23T07:42:40.184Z,1007.01
2018-01-23T07:43:40.106Z,1007.04
2018-01-23T07:44:40.093Z,1007.01
2018-01-23T07:45:40.081Z,1007.03
2018-01-23T07:46:40.057Z,1007.04
2018-01-23T07:47:40.047Z,1007.12
2018-01-23T07:48:40.274Z,1007.14
2018-01-23T07:49:41.022Z,1007.18
2018-01-23T07:50:40.036Z,1007.17
2018-01-23T07:51:39.991Z,1007.22
2018-01-23T07:52:40.924Z,1007.20
2018-01-23T07:53:39.947Z,1007.26
2018-01-23T07:54:39.964Z,1007.26
2018-01-23T07:55:39.911Z,1007.31
2018-01-23T07:56:39.904Z,1007.25
2018-01-23T07:57:39.926Z,1007.30
2018-01-23T07:58:39.933Z,1007.33
2018-01-23T07:59:39.875Z,1007.33
2018-01-23T08:00:39.856Z,1007.31
2018-01-23T08:01:39.824Z,1007.34
2018-01-23T08:02:39.810Z,1007.37
2018-01-23T08:03:39.803Z,1007.37
2018-01-23T08:04:40.040Z,1007.37
2018-01-23T08:05:39.773Z,1007.36
2018-01-23T08:06:40.464Z,1007.37
2018-01-23T08:07:40.059Z,1007.40
2018-01-23T08:08:39.738Z,1007.40
2018-01-23T08:09:39.766Z,1007.36
2018-01-23T08:16:32.708Z,1007.43
2018-01-23T08:17:31.769Z,1007.43
2018-01-23T08:18:31.728Z,1007.44
2018-01-23T08:19:32.384Z,1007.47
2018-01-23T08:20:31.663Z,1007.47
2018-01-23T08:21:31.599Z,1007.50
2018-01-23T08:22:32.346Z,1007.50
2018-01-23T08:26:24.994Z,1007.62
2018-01-23T08:27:24.923Z,1007.59
2018-01-23T08:28:25.166Z,1007.59
2018-01-23T08:29:24.848Z,1007.61
2018-01-23T08:30:25.646Z,1007.63
2018-01-23T08:31:24.819Z,1007.63
2018-01-23T08:32:24.838Z,1007.61
2018-01-23T08:33:24.789Z,1007.57
2018-01-23T08:34:24.775Z,1007.60
2018-01-23T08:35:24.751Z,1007.60
2018-01-23T08:36:25.052Z,1007.66
2018-01-23T08:37:24.740Z,1007.70
2018-01-23T08:38:24.707Z,1007.67
2018-01-23T08:39:26.760Z,1007.68
2018-01-23T08:40:24.654Z,1007.70
2018-01-23T08:41:25.640Z,1007.69
2018-01-23T08:42:24.631Z,1007.65
2018-01-23T08:43:24.627Z,1007.70
2018-01-23T08:44:24.624Z,1007.68
2018-01-23T08:45:24.597Z,1007.71
2018-01-23T08:46:25.645Z,1007.69
2018-01-23T08:47:24.561Z,1007.68
2018-01-23T08:48:24.552Z,1007.69
2018-01-23T08:49:24.539Z,1007.71
2018-01-23T08:50:24.502Z,1007.72
2018-01-23T08:51:24.496Z,1007.75
2018-01-23T08:52:24.472Z,1007.74
2018-01-23T08:53:24.452Z,1007.75
2018-01-23T08:54:24.447Z,1007.69
2018-01-23T08:55:24.433Z,1007.80
2018-01-23T08:56:24.407Z,1007.78
2018-01-23T08:57:25.128Z,1007.76
2018-01-23T08:58:24.390Z,1007.80
2018-01-23T08:59:24.380Z,1007.83
2018-01-23T09:00:24.361Z,1007.78
2018-01-23T09:01:24.344Z,1007.83
2018-01-23T09:02:24.362Z,1007.80
2018-01-23T09:03:24.379Z,1007.82
2018-01-23T09:04:24.289Z,1007.83
2018-01-23T09:05:24.291Z,1007.84
2018-01-23T09:06:24.273Z,1007.82
2018-01-23T09:07:24.247Z,1007.85
2018-01-23T09:08:24.222Z,1007.81
2018-01-23T09:09:24.240Z,1007.79
2018-01-23T09:10:24.211Z,1007.85
2018-01-23T09:11:24.184Z,1007.86
2018-01-23T09:12:24.496Z,1007.88
2018-01-23T09:13:24.156Z,1007.88
2018-01-23T09:14:24.141Z,1007.85
2018-01-23T09:15:24.111Z,1007.85
2018-01-23T09:16:24.122Z,1007.84
2018-01-23T09:17:24.102Z,1007.87
2018-01-23T09:18:24.219Z,1007.87
2018-01-23T09:19:24.061Z,1007.87
2018-01-23T09:20:24.040Z,1007.88
2018-01-23T09:21:24.055Z,1007.86
2018-01-23T09:22:24.017Z,1007.93
2018-01-23T09:23:23.997Z,1007.93
2018-01-23T09:24:24.014Z,1007.92
2018-01-23T09:25:23.963Z,1007.94
2018-01-23T09:26:23.945Z,1007.93
2018-01-23T09:27:23.945Z,1007.96
2018-01-23T09:28:23.954Z,1007.96
2018-01-23T09:29:23.954Z,1007.98
2018-01-23T09:30:23.932Z,1008.00
2018-01-23T09:31:23.875Z,1007.97
2018-01-23T09:32:23.871Z,1007.98
2018-01-23T09:33:23.830Z,1007.97
2018-01-23T09:34:23.832Z,1007.98
2018-01-23T09:35:23.902Z,1008.00
2018-01-23T09:36:23.797Z,1007.95
2018-01-23T09:37:23.770Z,1008.00
2018-01-23T09:38:23.768Z,1007.97
2018-01-23T09:39:23.763Z,1007.96
2018-01-23T09:40:23.785Z,1008.01
2018-01-23T09:41:23.747Z,1008.01
2018-01-23T09:42:23.699Z,1008.03
2018-01-23T09:43:23.715Z,1008.02
2018-01-23T09:44:23.692Z,1007.99
2018-01-23T09:45:23.663Z,1008.01
2018-01-23T09:46:23.653Z,1007.99
2018-01-23T09:47:23.615Z,1008.06
2018-01-23T09:48:23.651Z,1008.05
2018-01-23T09:49:23.612Z,1008.07
2018-01-23T09:50:23.584Z,1008.07
2018-01-23T09:51:23.552Z,1008.02
2018-01-23T09:52:23.542Z,1008.09
2018-01-23T09:53:23.540Z,1008.08
2018-01-23T09:54:23.570Z,1008.04
2018-01-23T09:55:23.517Z,1008.04
2018-01-23T09:56:23.489Z,1008.06
2018-01-23T09:57:23.479Z,1008.03
2018-01-23T09:58:23.456Z,1008.05
2018-01-23T09:59:23.740Z,1008.02
2018-01-23T10:00:23.432Z,1008.08
2018-01-23T10:01:23.416Z,1008.06
2018-01-23T10:02:23.424Z,1008.05
2018-01-23T10:03:23.371Z,1008.06
2018-01-23T10:04:23.365Z,1008.05
2018-01-23T10:05:23.387Z,1008.06
2018-01-23T10:06:23.339Z,1008.03
2018-01-23T10:07:23.319Z,1008.04
2018-01-23T10:08:23.291Z,1008.04
2018-01-23T10:09:23.359Z,1008.07
2018-01-23T10:10:23.291Z,1008.03
2018-01-23T10:11:23.246Z,1008.06
2018-01-23T10:12:23.251Z,1008.04
2018-01-23T10:13:23.225Z,1008.04
2018-01-23T10:14:23.208Z,1008.07
2018-01-23T10:15:23.210Z,1008.07
2018-01-23T10:16:23.195Z,1008.07
2018-01-23T10:17:23.171Z,1008.07
2018-01-23T10:18:23.253Z,1008.17
2018-01-23T10:19:23.840Z,1008.10
2018-01-23T10:20:23.897Z,1008.11
2018-01-23T10:21:23.304Z,1008.12
2018-01-23T10:22:23.113Z,1008.08
2018-01-23T10:23:23.775Z,1008.04
2018-01-23T10:24:23.058Z,1008.10
2018-01-23T10:25:23.057Z,1008.12
2018-01-23T10:26:23.050Z,1008.10
2018-01-23T10:27:23.026Z,1008.07
2018-01-23T10:28:22.998Z,1008.05
2018-01-23T10:29:22.981Z,1008.01
2018-01-23T10:30:23.564Z,1008.04
2018-01-23T10:31:22.959Z,1008.08
2018-01-23T10:32:23.463Z,1008.14
2018-01-23T10:33:23.664Z,1008.12
2018-01-23T10:34:22.935Z,1008.09
2018-01-23T10:35:22.904Z,1008.06
2018-01-23T10:36:22.946Z,1008.09
2018-01-23T10:37:22.861Z,1008.12
2018-01-23T10:38:23.597Z,1008.09
2018-01-23T10:39:22.832Z,1008.05
2018-01-23T10:40:22.810Z,1008.09
2018-01-23T10:41:22.814Z,1008.08
2018-01-23T10:42:23.131Z,1008.06
2018-01-23T10:43:22.769Z,1008.11
2018-01-23T10:44:25.372Z,1008.03
2018-01-23T10:45:23.655Z,1008.05
2018-01-23T10:55:41.176Z,1007.91
2018-01-23T10:58:58.605Z,1007.89
2018-01-23T11:19:52.113Z,1007.68
2018-01-23T11:35:56.881Z,1007.50
2018-01-23T11:36:56.860Z,1007.54
2018-01-23T11:37:56.823Z,1007.48
2018-01-23T11:38:56.810Z,1007.55
2018-01-23T11:39:56.835Z,1007.54
2018-01-23T11:40:56.772Z,1007.54
2018-01-23T11:41:56.772Z,1007.50
2018-01-23T11:42:56.751Z,1007.45
2018-01-23T11:43:56.729Z,1007.42
2018-01-23T11:44:56.778Z,1007.50
2018-01-23T11:45:56.717Z,1007.45
2018-01-23T11:46:56.686Z,1007.47
2018-01-23T11:47:56.685Z,1007.50
2018-01-23T11:48:56.672Z,1007.50
2018-01-23T11:49:56.644Z,1007.50
2018-01-23T11:50:56.664Z,1007.55
2018-01-23T11:51:56.610Z,1007.53
2018-01-23T11:52:56.605Z,1007.55
2018-01-23T11:53:56.586Z,1007.56
2018-01-23T11:54:56.623Z,1007.58
2018-01-23T11:55:56.616Z,1007.52
2018-01-23T11:56:56.550Z,1007.54
2018-01-23T11:58:25.821Z,1007.49
2018-01-23T11:58:57.682Z,1007.51
2018-01-23T11:59:57.325Z,1007.46
2018-01-23T12:03:34.596Z,1007.41
2018-01-23T12:04:34.369Z,1007.40
2018-01-23T12:05:35.195Z,1007.40
2018-01-23T12:06:35.111Z,1007.39
2018-01-23T12:07:34.346Z,1007.41
2018-01-23T12:08:34.328Z,1007.42
2018-01-23T12:09:35.117Z,1007.40
2018-01-23T12:10:34.302Z,1007.41
2018-01-23T12:11:34.543Z,1007.41
2018-01-23T12:12:34.257Z,1007.38
2018-01-23T12:13:34.280Z,1007.41
2018-01-23T12:14:34.220Z,1007.40
2018-01-23T12:15:34.240Z,1007.41
2018-01-23T12:16:34.190Z,1007.36
2018-01-23T12:17:34.179Z,1007.32
2018-01-23T12:18:34.145Z,1007.33
2018-01-23T12:19:34.136Z,1007.34
2018-01-23T12:20:34.435Z,1007.31
2018-01-23T12:21:34.109Z,1007.32
2018-01-23T12:22:34.086Z,1007.38
2018-01-23T12:23:34.088Z,1007.35
2018-01-23T12:24:34.075Z,1007.37
2018-01-23T12:25:35.938Z,1007.34
2018-01-23T12:26:34.600Z,1007.36
2018-01-23T12:27:34.023Z,1007.33
2018-01-23T12:28:36.430Z,1007.28
2018-01-23T12:29:34.088Z,1007.26
2018-01-23T12:30:34.533Z,1007.27
2018-01-23T12:31:34.012Z,1007.27
2018-01-23T12:32:33.994Z,1007.19
2018-01-23T12:33:35.503Z,1007.22
2018-01-23T12:34:40.851Z,1007.19
2018-01-23T12:35:33.960Z,1007.23
2018-01-23T12:36:34.279Z,1007.24
2018-01-23T12:37:50.305Z,1007.21
2018-01-23T12:38:34.133Z,1007.14
2018-01-23T12:39:33.978Z,1007.10
2018-01-23T12:40:33.905Z,1007.15
2018-01-23T12:41:36.650Z,1007.14
2018-01-23T12:42:34.102Z,1007.11
2018-01-23T12:43:33.784Z,1007.12
2018-01-23T12:44:34.634Z,1007.09
2018-01-23T12:45:36.523Z,1007.05
2018-01-23T12:46:33.780Z,1007.03
2018-01-23T12:47:33.765Z,1007.05
2018-01-23T12:48:33.726Z,1007.03
2018-01-23T12:49:34.560Z,1006.99
2018-01-23T12:50:35.572Z,1007.02
2018-01-23T12:51:33.713Z,1007.06
2018-01-23T12:52:33.653Z,1007.09
2018-01-23T12:53:33.644Z,1007.05
2018-01-23T12:54:33.627Z,1007.05
2018-01-23T12:55:33.617Z,1007.03
2018-01-23T12:56:33.676Z,1007.04
2018-01-23T12:57:33.595Z,1007.01
2018-01-23T12:58:33.569Z,1007.08
2018-01-23T12:59:33.542Z,1007.03
2018-01-23T13:00:34.383Z,1007.02
2018-01-23T13:01:33.507Z,1007.05
2018-01-23T13:02:33.560Z,1006.93
2018-01-23T13:03:33.474Z,1006.94